Time;durP1;ratioP1;P1;durP2;ratioP2;P2;SDS_P1;SDS_P2;PMS_P1;PMS_P2;Temp;Humidity;BMP_temperature;BMP_pressure;BME280_temperature;BME280_humidity;BME280_pressure;Samples;Min_cycle;Max_cycle;Signal;HPM_P1;HPM_P2
2023/08/01 00:08:07;;;;;;;7.80;4.22;;;;;;;;;;21079583;28;20094;-65
2023/08/01 00:18:08;;;;;;;6.38;4.10;;;;;;;;;;21080562;28;20044;-64
2023/08/01 00:28:09;;;;;;;8.25;3.80;;;;;;;;;;21078902;28;20079;-64
2023/08/01 00:38:10;;;;;;;4.35;3.25;;;;;;;;;;21079716;28;20131;-65
2023/08/01 00:48:11;;;;;;;7.47;3.42;;;;;;;;;;21079454;28;20059;-65
2023/08/01 00:58:12;;;;;;;4.22;3.33;;;;;;;;;;21078809;28;20435;-65
2023/08/01 01:08:13;;;;;;;4.50;3.35;;;;;;;;;;21076898;28;20052;-64
2023/08/01 01:18:14;;;;;;;3.92;3.05;;;;;;;;;;21076387;28;20059;-65
2023/08/01 01:28:16;;;;;;;5.18;2.90;;;;;;;;;;21076278;28;20044;-65
2023/08/01 01:38:17;;;;;;;5.75;3.60;;;;;;;;;;21077027;28;20044;-64
2023/08/01 01:48:19;;;;;;;5.22;3.92;;;;;;;;;;21085043;28;20109;-65
2023/08/01 01:58:20;;;;;;;4.15;2.92;;;;;;;;;;21091303;28;20040;-65
2023/08/01 02:08:21;;;;;;;4.60;3.00;;;;;;;;;;21090362;28;20048;-65
2023/08/01 02:18:22;;;;;;;4.78;3.05;;;;;;;;;;21089654;28;20051;-65
2023/08/01 02:28:23;;;;;;;6.00;3.28;;;;;;;;;;21088533;28;20051;-65
2023/08/01 02:38:24;;;;;;;5.45;2.65;;;;;;;;;;21088311;28;20109;-65
2023/08/01 02:48:25;;;;;;;5.25;2.80;;;;;;;;;;21088903;28;20074;-65
2023/08/01 02:58:26;;;;;;;5.43;3.03;;;;;;;;;;21085846;28;20127;-64
2023/08/01 03:08:28;;;;;;;4.93;3.10;;;;;;;;;;21085108;28;20052;-65
2023/08/01 03:18:29;;;;;;;4.15;2.53;;;;;;;;;;21085017;28;20047;-64
2023/08/01 03:28:30;;;;;;;4.65;2.58;;;;;;;;;;21084192;28;20562;-65
2023/08/01 03:38:31;;;;;;;4.88;2.72;;;;;;;;;;21083252;28;20044;-65
2023/08/01 03:48:32;;;;;;;4.45;2.67;;;;;;;;;;21081273;28;20134;-65
2023/08/01 03:58:33;;;;;;;4.13;3.00;;;;;;;;;;21081499;28;20044;-65
2023/08/01 04:08:34;;;;;;;7.38;2.30;;;;;;;;;;21080162;28;20531;-64
2023/08/01 04:18:36;;;;;;;4.43;2.65;;;;;;;;;;21080606;28;20051;-66
2023/08/01 04:28:37;;;;;;;6.57;2.67;;;;;;;;;;21080023;28;20401;-65
2023/08/01 04:38:38;;;;;;;4.03;2.42;;;;;;;;;;21079374;28;20040;-64
2023/08/01 04:48:39;;;;;;;4.43;2.67;;;;;;;;;;21077981;28;20052;-65
2023/08/01 04:58:40;;;;;;;4.20;2.55;;;;;;;;;;21077691;28;20044;-64
2023/08/01 05:08:41;;;;;;;75.07;50.45;;;;;;;;;;21077318;28;20051;-65
2023/08/01 05:18:42;;;;;;;4.60;3.33;;;;;;;;;;21079485;28;20484;-65
2023/08/01 05:28:43;;;;;;;3.95;2.58;;;;;;;;;;21092412;28;20040;-67
2023/08/01 05:38:44;;;;;;;4.15;2.67;;;;;;;;;;21092843;28;20044;-66
2023/08/01 05:48:45;;;;;;;4.50;2.45;;;;;;;;;;21092247;28;20044;-65
2023/08/01 05:58:47;;;;;;;5.20;2.55;;;;;;;;;;21091314;28;20101;-64
2023/08/01 06:08:48;;;;;;;5.57;2.83;;;;;;;;;;21090661;28;20056;-65
2023/08/01 06:18:49;;;;;;;6.25;2.75;;;;;;;;;;21089599;28;20440;-64
2023/08/01 06:28:52;;;;;;;3.55;2.50;;;;;;;;;;21087285;28;20066;-64
2023/08/01 06:38:53;;;;;;;5.65;3.35;;;;;;;;;;21087780;28;20050;-64
2023/08/01 06:48:55;;;;;;;5.95;3.13;;;;;;;;;;21087369;28;20048;-64
2023/08/01 06:58:56;;;;;;;8.40;3.10;;;;;;;;;;21086102;28;20470;-64
2023/08/01 07:08:57;;;;;;;6.35;3.20;;;;;;;;;;21085361;28;20445;-65
2023/08/01 07:19:00;;;;;;;6.05;2.97;;;;;;;;;;21084075;28;20097;-64
2023/08/01 07:29:02;;;;;;;5.25;3.08;;;;;;;;;;21081754;28;20076;-66
2023/08/01 07:39:04;;;;;;;5.25;2.92;;;;;;;;;;21083270;28;20044;-65
2023/08/01 07:49:05;;;;;;;7.18;2.78;;;;;;;;;;21080600;28;20051;-66
2023/08/01 07:59:06;;;;;;;4.80;2.70;;;;;;;;;;21080146;28;20145;-65
2023/08/01 08:09:07;;;;;;;6.78;2.70;;;;;;;;;;21080726;28;20517;-66
2023/08/01 08:19:09;;;;;;;4.10;2.42;;;;;;;;;;21079056;28;20105;-66
2023/08/01 08:29:10;;;;;;;6.95;2.92;;;;;;;;;;21079837;28;20051;-65
2023/08/01 08:39:11;;;;;;;6.13;2.78;;;;;;;;;;21079285;28;20040;-65
2023/08/01 08:49:15;;;;;;;4.50;2.58;;;;;;;;;;21077539;28;20048;-67
2023/08/01 08:59:16;;;;;;;5.97;3.03;;;;;;;;;;21091357;28;20044;-66
2023/08/01 09:09:18;;;;;;;5.53;3.03;;;;;;;;;;21094662;28;20056;-66
2023/08/01 09:19:19;;;;;;;6.25;3.08;;;;;;;;;;21093065;28;20044;-66
2023/08/01 09:29:21;;;;;;;4.30;2.95;;;;;;;;;;21093206;28;20040;-66
2023/08/01 09:39:22;;;;;;;6.35;3.30;;;;;;;;;;21092013;28;20041;-67
2023/08/01 09:49:23;;;;;;;4.72;3.17;;;;;;;;;;21091752;28;20052;-62
2023/08/01 09:59:25;;;;;;;5.90;3.17;;;;;;;;;;21091777;28;20044;-69
2023/08/01 10:09:27;;;;;;;5.97;3.53;;;;;;;;;;21088162;28;20056;-68
2023/08/01 10:19:32;;;;;;;6.43;3.10;;;;;;;;;;21087861;28;20119;-66
2023/08/01 10:29:37;;;;;;;7.47;3.10;;;;;;;;;;21088642;28;20461;-68
2023/08/01 10:39:38;;;;;;;4.43;2.90;;;;;;;;;;21087687;28;20048;-69
2023/08/01 10:49:43;;;;;;;8.23;3.33;;;;;;;;;;21087951;28;20090;-70
2023/08/01 10:59:44;;;;;;;4.97;3.10;;;;;;;;;;21045972;28;20362;-70
2023/08/01 11:09:45;;;;;;;9.30;3.35;;;;;;;;;;21001710;28;20060;-71
2023/08/01 11:19:47;;;;;;;8.23;3.38;;;;;;;;;;20997730;28;20113;-67
2023/08/01 11:29:48;;;;;;;7.90;3.13;;;;;;;;;;21000013;28;20048;-66
2023/08/01 11:39:49;;;;;;;5.43;3.42;;;;;;;;;;20998512;28;20048;-67
2023/08/01 11:49:50;;;;;;;8.27;3.33;;;;;;;;;;20998493;28;20049;-67
2023/08/01 11:59:55;;;;;;;6.38;3.05;;;;;;;;;;20989396;28;20043;-67
2023/08/01 12:09:57;;;;;;;9.60;3.50;;;;;;;;;;20993919;28;20139;-67
2023/08/01 12:19:58;;;;;;;6.55;3.15;;;;;;;;;;20997386;28;20051;-67
2023/08/01 12:30:00;;;;;;;6.32;3.67;;;;;;;;;;20995840;28;20056;-68
2023/08/01 12:40:01;;;;;;;8.57;3.65;;;;;;;;;;20997178;28;20075;-67
2023/08/01 12:50:02;;;;;;;7.13;2.72;;;;;;;;;;20996037;28;20143;-68
2023/08/01 13:00:04;;;;;;;5.82;3.22;;;;;;;;;;20995818;28;20040;-68
2023/08/01 13:10:05;;;;;;;7.03;3.30;;;;;;;;;;20994626;28;20056;-68
2023/08/01 13:20:07;;;;;;;3.63;2.58;;;;;;;;;;20994785;28;20536;-67
2023/08/01 13:30:09;;;;;;;5.30;2.65;;;;;;;;;;20994326;28;20045;-67
2023/08/01 13:40:11;;;;;;;7.03;3.00;;;;;;;;;;20996117;28;20138;-68
2023/08/01 13:50:12;;;;;;;6.97;2.90;;;;;;;;;;21008471;28;20525;-66
2023/08/01 14:00:14;;;;;;;5.22;2.78;;;;;;;;;;21007617;28;20431;-67
2023/08/01 14:10:15;;;;;;;3.47;2.63;;;;;;;;;;21006387;28;20502;-68
2023/08/01 14:20:16;;;;;;;5.20;2.65;;;;;;;;;;21005848;28;20549;-67
2023/08/01 14:30:17;;;;;;;4.38;2.50;;;;;;;;;;21004899;28;20044;-68
2023/08/01 14:40:18;;;;;;;6.10;2.95;;;;;;;;;;21005778;28;20051;-67
2023/08/01 14:50:19;;;;;;;3.33;2.63;;;;;;;;;;21003979;28;20548;-67
2023/08/01 15:00:20;;;;;;;5.43;4.82;;;;;;;;;;20999846;28;20115;-68
2023/08/01 15:10:21;;;;;;;3.85;2.60;;;;;;;;;;20999010;28;20053;-69
2023/08/01 15:20:23;;;;;;;3.42;2.80;;;;;;;;;;20992035;28;20481;-68
2023/08/01 15:30:24;;;;;;;3.88;2.38;;;;;;;;;;20996269;28;20080;-68
2023/08/01 15:40:25;;;;;;;4.30;2.33;;;;;;;;;;20999876;28;20042;-68
2023/08/01 15:50:26;;;;;;;3.58;2.50;;;;;;;;;;20999069;28;20497;-68
2023/08/01 16:00:28;;;;;;;4.88;2.13;;;;;;;;;;20994506;28;20040;-69
2023/08/01 16:10:29;;;;;;;5.07;2.67;;;;;;;;;;20996760;28;20414;-69
2023/08/01 16:20:30;;;;;;;3.10;2.42;;;;;;;;;;20994909;28;20052;-70
2023/08/01 16:30:31;;;;;;;4.03;2.30;;;;;;;;;;20987209;28;20041;-69
2023/08/01 16:40:32;;;;;;;3.17;2.10;;;;;;;;;;20995066;28;20124;-69
2023/08/01 16:50:33;;;;;;;2.95;1.92;;;;;;;;;;20995590;28;20053;-67
2023/08/01 17:00:34;;;;;;;4.72;2.33;;;;;;;;;;20993544;28;20120;-68
2023/08/01 17:10:36;;;;;;;2.15;1.50;;;;;;;;;;20993512;28;20092;-68
2023/08/01 17:20:39;;;;;;;2.95;1.80;;;;;;;;;;21005634;28;20044;-68
2023/08/01 17:30:40;;;;;;;2.83;1.80;;;;;;;;;;21010273;28;20560;-69
2023/08/01 17:40:43;;;;;;;4.28;3.13;;;;;;;;;;21007636;28;20045;-68
2023/08/01 17:50:45;;;;;;;3.80;1.70;;;;;;;;;;21008063;28;20045;-67
2023/08/01 18:00:46;;;;;;;2.88;2.20;;;;;;;;;;21007333;28;20119;-68
2023/08/01 18:10:47;;;;;;;2.13;1.92;;;;;;;;;;21007028;28;20132;-67
2023/08/01 18:20:57;;;;;;;2.47;1.23;;;;;;;;;;21006506;28;20053;-66
2023/08/01 18:31:10;;;;;;;3.80;2.10;;;;;;;;;;21006301;28;20555;-67
2023/08/01 18:41:12;;;;;;;3.70;2.22;;;;;;;;;;21005028;28;20505;-67
2023/08/01 18:51:14;;;;;;;3.00;2.53;;;;;;;;;;21004134;28;20044;-68
2023/08/01 19:01:17;;;;;;;3.80;2.38;;;;;;;;;;21002763;28;20036;-67
2023/08/01 19:11:18;;;;;;;4.28;2.95;;;;;;;;;;21001758;28;20055;-67
2023/08/01 19:21:19;;;;;;;5.95;2.47;;;;;;;;;;21001610;28;20126;-68
2023/08/01 19:31:21;;;;;;;2.60;2.17;;;;;;;;;;21000409;28;20052;-67
2023/08/01 19:41:22;;;;;;;6.07;2.97;;;;;;;;;;20998665;28;20051;-67
2023/08/01 19:51:23;;;;;;;6.78;4.65;;;;;;;;;;20997613;28;20048;-67
2023/08/01 20:01:24;;;;;;;5.00;3.30;;;;;;;;;;20996714;28;20048;-68
2023/08/01 20:11:25;;;;;;;3.65;3.22;;;;;;;;;;20997035;28;20446;-68
2023/08/01 20:21:26;;;;;;;6.45;4.15;;;;;;;;;;20997404;28;20487;-69
2023/08/01 20:31:27;;;;;;;5.47;2.17;;;;;;;;;;20996557;28;20157;-68
2023/08/01 20:41:29;;;;;;;6.45;2.50;;;;;;;;;;20996577;28;20037;-68
2023/08/01 20:51:30;;;;;;;5.40;2.60;;;;;;;;;;21001449;28;20048;-68
2023/08/01 21:01:34;;;;;;;9.77;6.90;;;;;;;;;;21011557;28;20043;-68
2023/08/01 21:11:35;;;;;;;5.10;3.03;;;;;;;;;;21012009;28;20060;-69
2023/08/01 21:21:36;;;;;;;6.78;3.50;;;;;;;;;;21011366;28;20041;-68
2023/08/01 21:31:37;;;;;;;4.82;3.20;;;;;;;;;;21009160;28;20127;-68
2023/08/01 21:41:38;;;;;;;10.20;7.15;;;;;;;;;;21009664;28;20520;-68
2023/08/01 21:51:39;;;;;;;6.10;3.50;;;;;;;;;;21009058;28;20052;-67
2023/08/01 22:01:41;;;;;;;5.38;2.58;;;;;;;;;;21007862;28;20045;-69
2023/08/01 22:11:42;;;;;;;4.57;2.80;;;;;;;;;;21008180;28;20052;-68
2023/08/01 22:21:43;;;;;;;6.28;3.05;;;;;;;;;;21006881;28;20493;-68
2023/08/01 22:31:44;;;;;;;3.38;2.78;;;;;;;;;;21004456;28;20045;-69
2023/08/01 22:41:45;;;;;;;8.23;3.03;;;;;;;;;;21005103;28;20083;-67
2023/08/01 22:51:46;;;;;;;5.00;3.03;;;;;;;;;;21003954;28;20170;-68
2023/08/01 23:01:47;;;;;;;5.60;2.92;;;;;;;;;;21003345;28;20046;-68
2023/08/01 23:11:48;;;;;;;11.18;8.40;;;;;;;;;;21000268;28;20041;-67
2023/08/01 23:21:49;;;;;;;5.82;2.92;;;;;;;;;;21001284;28;20432;-68
2023/08/01 23:31:52;;;;;;;5.05;2.75;;;;;;;;;;21001346;28;20059;-68
2023/08/01 23:41:56;;;;;;;4.85;2.47;;;;;;;;;;21000401;28;20438;-67
2023/08/01 23:51:57;;;;;;;4.23;2.63;;;;;;;;;;20999701;28;20129;-68
